Time;durP1;ratioP1;P1;durP2;ratioP2;P2;SDS_P1;SDS_P2;PMS_P1;PMS_P2;Temp;Humidity;BMP_temperature;BMP_pressure;BME280_temperature;BME280_humidity;BME280_pressure;Samples;Min_cycle;Max_cycle;Signal;HPM_P1;HPM_P2
2022/01/09 00:02:07;;;;;;;5.83;4.42;;;;;;;9.44;47.00;99677.22;1764884;81;21047;-62
2022/01/09 00:04:34;;;;;;;6.20;4.40;;;;;;;9.44;47.00;99670.12;1760742;81;21054;-62
2022/01/09 00:07:00;;;;;;;5.65;4.72;;;;;;;9.44;46.98;99661.31;1743321;80;21086;-61
2022/01/09 00:09:28;;;;;;;5.30;4.22;;;;;;;9.44;47.00;99658.66;1764583;81;21522;-61
2022/01/09 00:11:54;;;;;;;5.67;4.45;;;;;;;9.44;46.98;99670.12;1764571;81;21042;-61
2022/01/09 00:14:21;;;;;;;5.25;4.42;;;;;;;9.43;46.98;99662.33;1764715;81;20995;-61
2022/01/09 00:16:47;;;;;;;5.80;4.58;;;;;;;9.43;46.98;99658.34;1763807;81;21011;-61
2022/01/09 00:19:13;;;;;;;5.37;4.40;;;;;;;9.43;46.98;99656.52;1764834;80;21183;-62
2022/01/09 00:21:40;;;;;;;5.75;4.60;;;;;;;9.42;46.99;99654.84;1763410;80;21216;-61
2022/01/09 00:24:06;;;;;;;5.65;4.03;;;;;;;9.42;47.00;99654.02;1764544;81;21077;-61
2022/01/09 00:26:33;;;;;;;6.00;4.62;;;;;;;9.42;46.96;99651.37;1753796;80;21007;-61
2022/01/09 00:29:00;;;;;;;6.00;4.45;;;;;;;9.42;46.97;99646.07;1780274;80;21069;-61
2022/01/09 00:31:26;;;;;;;5.60;4.30;;;;;;;9.42;46.97;99640.77;1743228;80;21096;-61
2022/01/09 00:33:53;;;;;;;5.97;4.53;;;;;;;9.41;46.98;99637.30;1764638;81;21156;-61
2022/01/09 00:36:19;;;;;;;6.85;4.53;;;;;;;9.41;46.98;99640.45;1759015;80;21039;-61
2022/01/09 00:38:45;;;;;;;5.83;4.15;;;;;;;9.41;46.98;99635.97;1752363;81;21059;-61
2022/01/09 00:41:12;;;;;;;4.90;3.90;;;;;;;9.40;46.99;99637.45;1734364;81;21038;-61
2022/01/09 00:43:38;;;;;;;5.30;4.15;;;;;;;9.41;46.99;99635.15;1713377;82;21054;-62
2022/01/09 00:46:04;;;;;;;5.60;4.08;;;;;;;9.40;46.99;99630.82;1734296;81;21142;-61
2022/01/09 00:48:31;;;;;;;6.40;4.30;;;;;;;9.40;47.00;99625.52;1735081;81;21068;-63
2022/01/09 00:50:58;;;;;;;4.95;4.17;;;;;;;9.40;47.00;99626.84;1734252;82;21023;-62
2022/01/09 00:53:25;;;;;;;5.78;4.30;;;;;;;9.39;46.99;99613.27;1773614;80;21021;-60
2022/01/09 00:55:51;;;;;;;4.83;4.28;;;;;;;9.38;46.99;99612.42;1775142;80;21014;-61
2022/01/09 00:58:18;;;;;;;4.83;4.15;;;;;;;9.38;47.01;99608.44;1734227;81;22072;-61
2022/01/09 01:00:45;;;;;;;6.30;4.15;;;;;;;9.38;46.99;99609.77;1734818;80;21046;-62
2022/01/09 01:03:11;;;;;;;6.03;4.42;;;;;;;9.39;46.96;99600.02;1734331;82;21061;-60
2022/01/09 01:05:38;;;;;;;5.90;4.37;;;;;;;9.37;47.00;99596.20;1735250;81;21031;-60
2022/01/09 01:08:05;;;;;;;6.00;4.30;;;;;;;9.37;46.99;99590.89;1734232;82;21030;-60
2022/01/09 01:10:31;;;;;;;5.58;4.45;;;;;;;9.38;46.98;99582.44;1734488;82;21108;-61
2022/01/09 01:15:15;;;;;;;5.47;4.12;;;;;;;9.41;46.98;99571.00;1870380;76;28677;-60
2022/01/09 01:17:41;;;;;;;5.10;3.95;;;;;;;9.37;46.96;99571.01;1826446;78;20999;-61
2022/01/09 01:20:09;;;;;;;6.42;4.55;;;;;;;9.37;46.95;99558.26;1826591;78;21110;-61
2022/01/09 01:22:36;;;;;;;5.08;4.25;;;;;;;9.38;46.95;99563.88;1823418;78;20982;-61
2022/01/09 01:25:05;;;;;;;6.17;3.77;;;;;;;9.36;46.95;99557.41;1794051;80;21589;-61
2022/01/09 01:27:32;;;;;;;5.67;4.50;;;;;;;9.36;46.96;99552.61;1793994;79;21506;-61
2022/01/09 01:29:58;;;;;;;4.55;3.98;;;;;;;9.35;46.96;99550.46;1795946;77;21064;-60
2022/01/09 01:32:25;;;;;;;6.15;4.25;;;;;;;9.35;46.97;99548.28;1821212;77;21534;-61
2022/01/09 01:34:51;;;;;;;6.10;4.50;;;;;;;9.35;46.96;99542.98;1832901;77;20984;-59
2022/01/09 01:37:18;;;;;;;5.80;4.28;;;;;;;9.35;46.97;99541.66;1820445;78;21044;-60
2022/01/09 01:39:44;;;;;;;6.83;4.70;;;;;;;9.35;46.96;99529.73;1815904;78;21498;-60
2022/01/09 01:42:10;;;;;;;4.55;3.80;;;;;;;9.34;46.96;99522.78;1794077;80;21061;-60
2022/01/09 01:44:44;;;;;;;5.15;4.10;;;;;;;9.34;46.97;99520.13;1793967;79;21930;-61
2022/01/09 01:47:10;;;;;;;5.55;4.67;;;;;;;9.32;46.97;99512.34;1794543;78;21516;-61
2022/01/09 01:49:37;;;;;;;5.22;4.17;;;;;;;9.32;46.97;99512.34;1793829;80;21072;-61
2022/01/09 01:52:05;;;;;;;5.12;4.20;;;;;;;9.33;46.98;99509.18;1793918;80;21543;-61
2022/01/09 01:54:32;;;;;;;4.85;4.15;;;;;;;9.32;46.98;99496.94;1793925;79;21092;-61
2022/01/09 01:56:59;;;;;;;5.28;4.28;;;;;;;9.31;47.00;99508.52;1807785;77;21148;-61
2022/01/09 01:59:26;;;;;;;6.00;3.95;;;;;;;9.31;46.99;99497.45;1827138;77;21029;-60
2022/01/09 02:01:52;;;;;;;5.58;4.12;;;;;;;9.31;47.00;99500.09;1793876;80;21057;-61
2022/01/09 02:04:19;;;;;;;5.03;4.00;;;;;;;9.31;47.00;99489.97;1794971;78;21037;-61
2022/01/09 02:06:45;;;;;;;5.08;4.12;;;;;;;9.31;47.01;99491.29;1793889;80;20989;-62
2022/01/09 02:09:12;;;;;;;5.92;4.37;;;;;;;9.31;47.01;99488.64;1793923;80;21046;-60
2022/01/09 02:11:40;;;;;;;4.97;3.62;;;;;;;9.30;47.02;99467.12;1793763;79;20990;-61
2022/01/09 02:14:07;;;;;;;6.15;4.10;;;;;;;9.29;47.02;99470.75;1795072;78;21050;-61
2022/01/09 02:16:35;;;;;;;5.47;3.75;;;;;;;9.29;47.02;99466.77;1794209;80;21002;-62
2022/01/09 02:19:03;;;;;;;5.62;4.65;;;;;;;9.29;47.05;99464.12;1794416;79;20982;-61
2022/01/09 02:21:29;;;;;;;5.83;3.98;;;;;;;9.28;47.03;99458.50;1808498;78;21198;-62
2022/01/09 02:23:56;;;;;;;4.70;4.20;;;;;;;9.27;47.07;99457.66;1807697;78;21505;-62
2022/01/09 02:26:25;;;;;;;5.20;4.15;;;;;;;9.25;47.07;99449.89;1793592;80;21020;-60
2022/01/09 02:28:51;;;;;;;5.47;4.00;;;;;;;9.25;47.09;99458.32;1793858;79;20995;-61
2022/01/09 02:31:18;;;;;;;5.55;4.40;;;;;;;9.24;47.10;99454.85;1794907;78;21516;-61
2022/01/09 02:33:44;;;;;;;5.78;4.17;;;;;;;9.25;47.09;99451.70;1793597;80;21133;-61
2022/01/09 02:36:11;;;;;;;6.42;4.25;;;;;;;9.25;47.11;99454.34;1809532;78;21468;-62
2022/01/09 02:38:37;;;;;;;5.17;4.12;;;;;;;9.23;47.11;99458.52;1823151;77;21010;-61
2022/01/09 02:41:04;;;;;;;5.53;4.50;;;;;;;9.23;47.13;99446.58;1828319;77;21014;-61
2022/01/09 02:43:30;;;;;;;6.03;4.15;;;;;;;9.22;47.11;99450.72;1826259;78;21469;-61
2022/01/09 02:46:08;;;;;;;5.40;4.03;;;;;;;9.22;47.16;99451.54;1826183;78;21120;-64
2022/01/09 02:48:27;;;;;;;6.15;4.58;;;;;;;9.22;47.17;99449.39;1810353;78;20997;-60
2022/01/09 02:51:03;;;;;;;5.03;4.30;;;;;;;9.21;47.17;99435.80;1793558;79;21010;-61
2022/01/09 02:53:26;;;;;;;5.28;4.37;;;;;;;9.20;47.18;99437.63;1793635;78;21127;-61
2022/01/09 02:55:52;;;;;;;5.25;4.20;;;;;;;9.20;47.20;99438.95;1794712;78;21022;-62
2022/01/09 02:58:19;;;;;;;4.70;4.00;;;;;;;9.19;47.21;99434.66;1793691;79;21057;-60
2022/01/09 03:00:45;;;;;;;5.65;4.35;;;;;;;9.19;47.22;99429.36;1793537;80;20982;-61
2022/01/09 03:03:12;;;;;;;5.17;4.25;;;;;;;9.18;47.22;99423.72;1835343;77;21013;-61
2022/01/09 03:05:40;;;;;;;5.28;4.35;;;;;;;9.18;47.23;99421.06;1808467;78;21009;-60
2022/01/09 03:08:08;;;;;;;4.83;3.92;;;;;;;9.17;47.24;99415.42;1793981;80;21041;-62
2022/01/09 03:10:35;;;;;;;4.95;4.12;;;;;;;9.18;47.25;99425.55;1793761;79;21689;-61
2022/01/09 03:13:03;;;;;;;5.28;4.03;;;;;;;9.17;47.25;99409.30;1794530;78;20994;-61
2022/01/09 03:15:30;;;;;;;5.12;4.12;;;;;;;9.16;47.26;99415.11;1793538;80;21045;-61
2022/01/09 03:17:56;;;;;;;5.87;4.17;;;;;;;9.15;47.29;99406.81;1793717;80;21021;-60
2022/01/09 03:20:24;;;;;;;4.90;4.15;;;;;;;9.16;47.28;99400.53;1794464;78;21651;-61
2022/01/09 03:22:50;;;;;;;5.47;4.15;;;;;;;9.14;47.27;99398.55;1794650;78;21113;-60
2022/01/09 03:25:17;;;;;;;5.70;4.42;;;;;;;9.14;47.30;99405.17;1793721;79;20997;-61
2022/01/09 03:27:52;;;;;;;6.10;4.45;;;;;;;9.14;47.31;99397.22;1793608;79;21940;-62
2022/01/09 03:30:18;;;;;;;4.83;4.33;;;;;;;9.14;47.31;99401.20;1794906;78;21026;-60
2022/01/09 03:32:45;;;;;;;4.60;3.77;;;;;;;9.14;47.33;99387.12;1793280;79;21551;-60
2022/01/09 03:35:14;;;;;;;5.03;4.12;;;;;;;9.14;47.32;99392.42;1798682;78;21192;-61
2022/01/09 03:37:42;;;;;;;5.85;4.20;;;;;;;9.13;47.35;99392.08;1819707;78;21476;-61
2022/01/09 03:40:12;;;;;;;5.45;4.72;;;;;;;9.13;47.34;99387.60;1800883;78;21029;-60
2022/01/09 03:42:38;;;;;;;5.20;4.05;;;;;;;9.13;47.36;99378.83;1793593;78;21077;-62
2022/01/09 03:45:07;;;;;;;5.10;4.00;;;;;;;9.12;47.36;99383.31;1794297;79;21013;-60
2022/01/09 03:47:35;;;;;;;6.35;4.42;;;;;;;9.11;47.37;99377.67;1740945;81;21085;-61
2022/01/09 03:50:07;;;;;;;5.22;4.20;;;;;;;9.12;47.40;99377.19;1746017;81;20987;-61
2022/01/09 03:52:37;;;;;;;4.43;3.53;;;;;;;9.11;47.40;99376.34;1770263;81;21066;-62
2022/01/09 03:55:09;;;;;;;6.03;4.00;;;;;;;9.11;47.41;99368.39;1769941;81;21743;-61
2022/01/09 03:57:36;;;;;;;5.05;4.20;;;;;;;9.11;47.41;99363.09;1769262;81;21558;-61
2022/01/09 04:00:05;;;;;;;6.05;4.10;;;;;;;9.11;47.43;99367.57;1787512;80;21086;-60
2022/01/09 04:02:31;;;;;;;5.67;3.83;;;;;;;9.10;47.43;99361.92;1768917;81;21486;-61
2022/01/09 04:04:59;;;;;;;7.25;4.85;;;;;;;9.09;47.44;99361.62;1770065;81;21065;-62
2022/01/09 04:07:28;;;;;;;4.87;4.10;;;;;;;9.09;47.45;99356.31;1781253;80;21104;-60
2022/01/09 04:09:55;;;;;;;5.33;4.30;;;;;;;9.07;47.47;99355.16;1789302;80;21076;-61
2022/01/09 04:12:32;;;;;;;5.40;4.00;;;;;;;9.07;47.47;99357.80;1805913;79;21217;-61
2022/01/09 04:14:50;;;;;;;5.97;4.50;;;;;;;9.07;47.50;99355.66;1764050;81;21152;-62
2022/01/09 04:17:25;;;;;;;5.58;4.40;;;;;;;9.07;47.48;99355.66;1765068;81;21555;-61
2022/01/09 04:19:45;;;;;;;4.95;4.10;;;;;;;9.06;47.48;99350.86;1758423;81;21074;-60
2022/01/09 04:22:12;;;;;;;5.58;4.00;;;;;;;9.06;47.51;99341.59;1763775;81;21003;-61
2022/01/09 04:24:38;;;;;;;5.22;4.17;;;;;;;9.06;47.54;99348.22;1764876;81;21148;-60
2022/01/09 04:27:06;;;;;;;6.08;4.03;;;;;;;9.05;47.53;99340.73;1764762;81;21055;-60
2022/01/09 04:29:33;;;;;;;5.20;4.45;;;;;;;9.05;47.54;99338.59;1744233;81;21510;-61
2022/01/09 04:31:59;;;;;;;4.92;3.85;;;;;;;9.04;47.54;99333.80;1765011;81;21058;-62
2022/01/09 04:34:26;;;;;;;5.62;4.85;;;;;;;9.05;47.55;99340.73;1764856;81;21070;-61
2022/01/09 04:36:52;;;;;;;5.15;4.08;;;;;;;9.04;47.55;99321.88;1749299;81;21138;-61
2022/01/09 04:39:19;;;;;;;5.08;4.15;;;;;;;9.05;47.55;99331.97;1734718;82;21034;-61
2022/01/09 04:41:45;;;;;;;5.22;4.03;;;;;;;9.04;47.55;99327.69;1734386;82;21051;-61
2022/01/09 04:44:11;;;;;;;5.45;4.15;;;;;;;9.04;47.56;99315.77;1734549;82;21605;-60
2022/01/09 04:46:41;;;;;;;5.50;4.40;;;;;;;9.03;47.58;99313.59;1735490;81;21050;-63
2022/01/09 04:49:06;;;;;;;4.92;4.20;;;;;;;9.03;47.57;99312.27;1736234;80;23443;-61
2022/01/09 04:51:33;;;;;;;4.75;3.80;;;;;;;9.03;47.60;99313.59;1749383;80;21080;-61
2022/01/09 04:53:59;;;;;;;6.17;4.58;;;;;;;9.02;47.59;99309.30;1723041;81;21019;-61
2022/01/09 04:56:28;;;;;;;6.60;4.53;;;;;;;9.02;47.58;99301.83;1734618;82;21566;-61
2022/01/09 04:58:54;;;;;;;6.65;4.80;;;;;;;9.02;47.62;99298.70;1734978;82;21133;-61
2022/01/09 05:01:21;;;;;;;6.62;4.40;;;;;;;9.03;47.60;99299.52;1734471;82;21046;-61
2022/01/09 05:03:47;;;;;;;5.90;4.42;;;;;;;9.03;47.62;99295.04;1735522;81;21459;-62
2022/01/09 05:06:13;;;;;;;6.50;4.72;;;;;;;9.02;47.61;99287.25;1734603;82;21044;-62
2022/01/09 05:08:40;;;;;;;6.20;4.40;;;;;;;9.00;47.63;99284.80;1734494;82;21548;-61
2022/01/09 05:11:06;;;;;;;5.70;4.45;;;;;;;9.02;47.64;99285.45;1736252;80;21091;-62
2022/01/09 05:13:34;;;;;;;5.50;4.05;;;;;;;9.01;47.64;99284.30;1774840;80;21131;-60
2022/01/09 05:16:00;;;;;;;5.30;4.30;;;;;;;9.02;47.65;99280.62;1769436;81;21546;-61
2022/01/09 05:18:26;;;;;;;7.12;4.53;;;;;;;9.01;47.65;99286.44;1770903;81;21014;-61
2022/01/09 05:20:53;;;;;;;5.35;4.20;;;;;;;9.01;47.66;99285.61;1769375;80;21090;-62
2022/01/09 05:23:19;;;;;;;7.15;4.50;;;;;;;9.00;47.67;99278.65;1770763;81;21475;-61
2022/01/09 05:25:46;;;;;;;6.40;4.33;;;;;;;9.00;47.66;99273.35;1770473;81;21147;-60
2022/01/09 05:28:12;;;;;;;5.28;4.22;;;;;;;8.99;47.67;99275.18;1758803;81;21585;-61
2022/01/09 05:30:39;;;;;;;4.85;3.75;;;;;;;9.00;47.68;99265.40;1739863;82;21534;-60
2022/01/09 05:33:06;;;;;;;6.53;4.65;;;;;;;8.99;47.70;99270.39;1740075;82;21506;-61
2022/01/09 05:35:32;;;;;;;5.50;4.00;;;;;;;8.99;47.70;99258.47;1740088;82;21053;-60
2022/01/09 05:37:58;;;;;;;5.30;4.33;;;;;;;9.00;47.72;99252.16;1740974;81;23299;-61
2022/01/09 05:40:25;;;;;;;5.72;4.40;;;;;;;8.99;47.73;99261.11;1739859;82;21043;-62
2022/01/09 05:42:52;;;;;;;5.35;3.98;;;;;;;9.00;47.71;99254.80;1740042;82;21082;-61
2022/01/09 05:45:18;;;;;;;5.47;4.33;;;;;;;8.99;47.72;99251.84;1741050;81;21340;-61
2022/01/09 05:47:45;;;;;;;5.22;4.08;;;;;;;8.99;47.72;99255.31;1739853;82;21018;-61
2022/01/09 05:50:12;;;;;;;4.80;3.87;;;;;;;8.99;47.72;99245.22;1755559;80;21070;-60
2022/01/09 05:52:39;;;;;;;6.95;4.70;;;;;;;8.99;47.73;99254.48;1770432;81;21038;-62
2022/01/09 05:55:07;;;;;;;5.10;4.17;;;;;;;8.98;47.74;99250.17;1769473;80;21043;-61
2022/01/09 05:57:33;;;;;;;6.80;4.60;;;;;;;8.98;47.72;99248.85;1772336;80;21006;-60
2022/01/09 05:59:59;;;;;;;5.40;3.83;;;;;;;8.98;47.75;99244.88;1770651;81;21053;-61
2022/01/09 06:02:26;;;;;;;5.83;4.50;;;;;;;8.97;47.74;99240.08;1756070;81;21069;-61
2022/01/09 06:04:52;;;;;;;6.87;4.50;;;;;;;8.97;47.75;99234.78;1740091;82;21085;-61
2022/01/09 06:07:18;;;;;;;4.62;4.10;;;;;;;8.98;47.77;99242.23;1740620;82;21022;-62
2022/01/09 06:09:45;;;;;;;4.53;3.75;;;;;;;8.98;47.75;99235.60;1740077;82;21129;-60
2022/01/09 06:12:11;;;;;;;5.33;4.20;;;;;;;8.97;47.76;99228.67;1741105;81;21011;-61
2022/01/09 06:14:37;;;;;;;6.53;4.67;;;;;;;8.97;47.76;99230.81;1739996;82;21129;-61
2022/01/09 06:17:04;;;;;;;5.70;4.12;;;;;;;8.97;47.76;99221.53;1754075;80;21039;-61
2022/01/09 06:19:31;;;;;;;6.08;4.22;;;;;;;8.97;47.79;99219.39;1763580;80;21546;-61
2022/01/09 06:21:57;;;;;;;4.97;4.40;;;;;;;8.96;47.79;99218.58;1749111;82;21316;-61
2022/01/09 06:24:24;;;;;;;7.28;5.00;;;;;;;8.96;47.80;99216.41;1818030;79;21004;-65
2022/01/09 06:26:51;;;;;;;6.47;4.60;;;;;;;8.97;47.80;99210.13;1818144;79;21127;-61
2022/01/09 06:29:19;;;;;;;6.03;4.65;;;;;;;8.96;47.80;99206.66;1807993;78;21477;-61
2022/01/09 06:31:45;;;;;;;5.33;4.03;;;;;;;8.97;47.81;99210.13;1790884;80;21502;-61
2022/01/09 06:34:13;;;;;;;5.90;4.83;;;;;;;8.96;47.82;99198.70;1816101;77;21073;-61
2022/01/09 06:36:40;;;;;;;6.03;4.72;;;;;;;8.96;47.81;99214.60;1804350;78;21037;-62
2022/01/09 06:39:07;;;;;;;6.03;4.58;;;;;;;8.97;47.81;99214.09;1790795;79;22356;-60
2022/01/09 06:41:34;;;;;;;7.70;4.47;;;;;;;8.97;47.82;99203.50;1790703;80;21033;-61
2022/01/09 06:44:00;;;;;;;5.35;4.60;;;;;;;8.96;47.82;99196.53;1791023;80;21037;-61
2022/01/09 06:46:27;;;;;;;5.25;4.55;;;;;;;8.97;47.83;99210.94;1791992;78;21068;-60
2022/01/09 06:48:53;;;;;;;6.08;4.92;;;;;;;8.96;47.84;99205.33;1792618;78;21050;-61
2022/01/09 06:51:19;;;;;;;5.75;4.95;;;;;;;8.98;47.86;99213.08;1823201;78;22071;-59
2022/01/09 06:53:46;;;;;;;7.05;4.78;;;;;;;8.97;47.87;99199.52;1803437;78;21076;-61
2022/01/09 06:56:12;;;;;;;4.92;4.30;;;;;;;8.98;47.86;99206.45;1790848;80;21003;-59
2022/01/09 06:58:39;;;;;;;8.35;5.08;;;;;;;8.97;47.85;99203.50;1790778;80;21589;-62
2022/01/09 07:01:05;;;;;;;7.10;5.25;;;;;;;8.97;47.90;99202.99;1791204;77;21041;-62
2022/01/09 07:03:32;;;;;;;5.87;4.50;;;;;;;8.98;47.88;99207.31;1824186;77;23246;-62
2022/01/09 07:05:58;;;;;;;6.25;4.78;;;;;;;8.98;47.88;99201.16;1845636;77;21017;-61
2022/01/09 07:08:26;;;;;;;6.65;4.80;;;;;;;8.99;47.89;99197.53;1845687;77;21550;-61
2022/01/09 07:10:52;;;;;;;7.05;5.05;;;;;;;8.99;47.89;99190.91;1808469;77;21525;-61
2022/01/09 07:13:19;;;;;;;5.55;4.25;;;;;;;8.99;47.88;99190.40;1790886;80;20998;-61
2022/01/09 07:15:46;;;;;;;6.15;4.50;;;;;;;8.99;47.88;99191.72;1791899;80;22031;-62
2022/01/09 07:18:12;;;;;;;6.53;5.00;;;;;;;8.99;47.89;99185.09;1794559;78;20993;-62
2022/01/09 07:20:39;;;;;;;5.40;4.53;;;;;;;9.00;47.88;99192.54;1807218;77;21559;-61
2022/01/09 07:23:05;;;;;;;4.85;4.35;;;;;;;8.99;47.90;99178.48;1832649;77;20971;-65
2022/01/09 07:25:32;;;;;;;6.40;4.53;;;;;;;9.00;47.87;99166.89;1826116;77;21477;-61
2022/01/09 07:27:59;;;;;;;6.05;4.65;;;;;;;9.02;47.90;99175.97;1803000;78;21946;-62
2022/01/09 07:30:27;;;;;;;5.60;5.08;;;;;;;9.00;47.89;99154.13;1793473;80;20986;-61
2022/01/09 07:32:55;;;;;;;8.23;5.33;;;;;;;9.01;47.92;99155.28;1793586;80;21304;-62
2022/01/09 07:35:22;;;;;;;6.97;5.30;;;;;;;9.01;47.91;99146.02;1793679;80;21546;-62
2022/01/09 07:37:49;;;;;;;6.78;5.20;;;;;;;9.00;47.90;99147.02;1794590;78;21037;-61
2022/01/09 07:40:16;;;;;;;5.85;4.80;;;;;;;9.00;47.93;99145.70;1793702;80;22064;-61
2022/01/09 07:42:42;;;;;;;6.03;5.33;;;;;;;9.01;47.93;99149.98;1793568;80;21064;-61
2022/01/09 07:45:10;;;;;;;7.10;5.58;;;;;;;9.02;47.93;99145.50;1794875;78;21540;-61
2022/01/09 07:47:36;;;;;;;6.37;5.45;;;;;;;9.02;47.94;99138.88;1793987;79;21022;-62
2022/01/09 07:50:05;;;;;;;6.00;5.05;;;;;;;9.02;47.95;99134.43;1815204;78;21455;-61
2022/01/09 07:52:36;;;;;;;6.03;5.28;;;;;;;9.03;47.94;99135.25;1826111;78;21161;-61
2022/01/09 07:55:00;;;;;;;6.37;5.50;;;;;;;9.03;47.95;99137.90;1803204;78;21010;-61
2022/01/09 07:57:27;;;;;;;5.95;5.28;;;;;;;9.03;47.94;99131.27;1793724;80;21068;-61
2022/01/09 07:59:53;;;;;;;6.33;4.97;;;;;;;9.04;47.96;99132.94;1793515;79;20998;-61
2022/01/09 08:02:19;;;;;;;6.03;5.10;;;;;;;9.03;47.96;99125.47;1794700;78;21017;-62
2022/01/09 08:04:45;;;;;;;6.62;5.08;;;;;;;9.03;47.96;99126.79;1824549;78;21056;-63
2022/01/09 08:07:12;;;;;;;7.87;5.55;;;;;;;9.04;47.98;99130.29;1826129;77;21658;-61
2022/01/09 08:09:39;;;;;;;5.95;5.25;;;;;;;9.04;47.99;99122.34;1831702;77;21025;-62
2022/01/09 08:12:10;;;;;;;7.37;5.83;;;;;;;9.05;47.97;99120.00;1808442;77;20998;-62
2022/01/09 08:14:37;;;;;;;7.83;5.90;;;;;;;9.04;47.98;99115.20;1793466;79;21358;-61
2022/01/09 08:17:04;;;;;;;6.40;5.33;;;;;;;9.05;47.98;99120.81;1784270;79;21919;-61
2022/01/09 08:19:31;;;;;;;7.35;5.60;;;;;;;9.05;47.98;99114.19;1797439;78;21001;-60
2022/01/09 08:21:58;;;;;;;7.62;5.40;;;;;;;9.05;47.96;99098.30;1802711;79;20978;-62
2022/01/09 08:24:24;;;;;;;5.92;5.12;;;;;;;9.07;47.99;99103.42;1814421;79;21745;-61
2022/01/09 08:26:51;;;;;;;6.72;5.47;;;;;;;9.07;47.96;99111.38;1817158;78;21039;-62
2022/01/09 08:29:17;;;;;;;7.45;5.78;;;;;;;9.07;47.97;99102.10;1821360;78;22310;-62
2022/01/09 08:31:43;;;;;;;7.42;6.17;;;;;;;9.08;47.95;99115.69;1840034;78;21018;-63
2022/01/09 08:34:10;;;;;;;8.55;5.22;;;;;;;9.09;47.96;99106.73;1839793;78;21073;-61
2022/01/09 08:36:37;;;;;;;7.83;6.10;;;;;;;9.10;47.95;99104.89;1783834;77;21475;-61
2022/01/09 08:39:04;;;;;;;6.60;5.87;;;;;;;9.10;47.95;99100.45;1782508;80;21049;-61
2022/01/09 08:41:32;;;;;;;6.95;5.72;;;;;;;9.11;47.95;99102.08;1782436;80;21116;-62
2022/01/09 08:44:01;;;;;;;7.25;6.00;;;;;;;9.11;47.95;99090.16;1782383;80;21572;-62
2022/01/09 08:46:27;;;;;;;6.67;5.67;;;;;;;9.12;47.93;99086.52;1783762;79;20994;-61
2022/01/09 08:48:54;;;;;;;6.75;6.05;;;;;;;9.13;47.93;99092.13;1783441;78;20970;-62
2022/01/09 08:51:21;;;;;;;6.97;6.03;;;;;;;9.13;47.92;99085.50;1796007;79;21518;-60
2022/01/09 08:53:51;;;;;;;6.53;5.70;;;;;;;9.14;47.92;99081.05;1814543;78;21119;-62
2022/01/09 08:56:19;;;;;;;7.12;6.03;;;;;;;9.15;47.93;99077.38;1814498;78;21634;-62
2022/01/09 08:58:46;;;;;;;7.92;6.22;;;;;;;9.15;47.91;99068.92;1814513;79;21053;-62
2022/01/09 09:01:12;;;;;;;7.15;5.65;;;;;;;9.16;47.91;99065.29;1814592;79;21010;-62
2022/01/09 09:03:42;;;;;;;7.22;5.60;;;;;;;9.18;47.94;99069.09;1814123;78;20981;-61
2022/01/09 09:06:11;;;;;;;7.25;6.03;;;;;;;9.18;47.91;99063.28;1814484;79;21101;-62
2022/01/09 09:08:39;;;;;;;6.10;5.33;;;;;;;9.18;47.89;99056.66;1812900;78;21051;-61
2022/01/09 09:11:06;;;;;;;6.78;5.55;;;;;;;9.19;47.89;99055.67;1814750;79;20990;-62
2022/01/09 09:13:33;;;;;;;8.23;6.47;;;;;;;9.19;47.91;99055.67;1813861;78;21046;-60
2022/01/09 09:16:00;;;;;;;7.10;6.40;;;;;;;9.21;47.89;99060.30;1754320;81;21470;-61
2022/01/09 09:18:28;;;;;;;6.97;5.83;;;;;;;9.23;47.90;99053.47;1757237;81;20988;-61
2022/01/09 09:20:55;;;;;;;6.90;5.75;;;;;;;9.23;47.90;99045.52;1729153;83;21502;-62
2022/01/09 09:23:21;;;;;;;6.97;5.75;;;;;;;9.25;47.89;99041.71;1729036;83;21090;-62
2022/01/09 09:25:47;;;;;;;6.65;5.95;;;;;;;9.25;47.88;99029.78;1733539;81;21019;-62
2022/01/09 09:28:14;;;;;;;6.70;6.00;;;;;;;9.28;47.88;99022.48;1729035;83;21054;-61
2022/01/09 09:30:41;;;;;;;9.40;6.55;;;;;;;9.29;47.87;99017.48;1729138;83;21275;-62
2022/01/09 09:33:07;;;;;;;6.78;5.97;;;;;;;9.31;47.86;99014.16;1761630;81;21577;-61
2022/01/09 09:35:34;;;;;;;6.47;5.67;;;;;;;9.31;47.85;99008.38;1745984;80;21032;-61
2022/01/09 09:38:01;;;;;;;8.33;6.20;;;;;;;9.34;47.83;99013.81;1734292;82;21054;-62
2022/01/09 09:40:27;;;;;;;8.55;6.22;;;;;;;9.35;47.82;99002.19;1734344;82;21043;-62
2022/01/09 09:42:54;;;;;;;6.67;5.95;;;;;;;9.35;47.80;99000.39;1735397;81;21075;-61
2022/01/09 09:45:23;;;;;;;6.78;5.95;;;;;;;9.38;47.81;98992.57;1734307;81;21042;-62
2022/01/09 09:47:49;;;;;;;7.37;6.60;;;;;;;9.35;47.79;98982.31;1740944;80;21046;-60
2022/01/09 09:50:17;;;;;;;6.62;5.92;;;;;;;9.39;47.79;98991.07;1764309;81;21135;-62
2022/01/09 09:52:44;;;;;;;8.43;6.65;;;;;;;9.41;47.78;98990.90;1809016;79;21430;-61
2022/01/09 09:55:11;;;;;;;7.67;6.20;;;;;;;9.43;47.77;98980.94;1782813;79;21542;-61
2022/01/09 09:57:38;;;;;;;6.30;5.20;;;;;;;9.44;47.76;98994.50;1782487;79;20995;-62
2022/01/09 10:00:11;;;;;;;6.80;5.95;;;;;;;9.44;47.75;98983.41;1783637;79;21064;-61
2022/01/09 10:02:55;;;;;;;8.10;6.22;;;;;;;9.47;47.74;98989.36;1782727;80;21049;-61
2022/01/09 10:05:24;;;;;;;7.47;6.00;;;;;;;9.47;47.72;98992.83;1782752;80;21542;-62
2022/01/09 10:07:57;;;;;;;6.75;6.12;;;;;;;9.48;47.70;98990.48;1782747;80;21987;-62
2022/01/09 10:10:32;;;;;;;8.43;6.35;;;;;;;9.47;47.70;98982.23;1783154;79;21053;-62
2022/01/09 10:13:15;;;;;;;9.93;6.92;;;;;;;9.49;47.71;98979.40;1782490;79;21037;-63
2022/01/09 10:15:52;;;;;;;7.15;5.72;;;;;;;9.48;47.73;98970.59;1782393;79;21005;-62
2022/01/09 10:18:43;;;;;;;8.08;6.17;;;;;;;9.48;47.73;98978.55;1784119;78;21006;-64
2022/01/09 10:21:17;;;;;;;8.98;6.75;;;;;;;9.49;47.72;98973.59;1811628;78;21094;-62
2022/01/09 10:24:07;;;;;;;7.40;6.05;;;;;;;9.49;47.73;98970.94;1839084;78;21062;-63
2022/01/09 10:26:38;;;;;;;7.37;6.15;;;;;;;9.50;47.73;98975.73;1828463;78;21076;-63
2022/01/09 10:29:06;;;;;;;7.78;6.12;;;;;;;9.48;47.73;98961.31;1814187;78;21721;-62
2022/01/09 10:31:48;;;;;;;8.50;6.45;;;;;;;9.49;47.75;98968.80;1814597;78;21009;-62
2022/01/09 10:34:18;;;;;;;7.05;6.33;;;;;;;9.48;47.77;98962.64;1813792;78;21280;-62
2022/01/09 10:36:51;;;;;;;8.58;7.00;;;;;;;9.49;47.79;98962.98;1816094;78;21017;-64
2022/01/09 10:39:36;;;;;;;8.00;6.10;;;;;;;9.48;47.77;98949.39;1809359;78;21490;-61
2022/01/09 10:42:03;;;;;;;7.58;6.17;;;;;;;9.49;47.90;98950.23;1838653;77;20994;-62
2022/01/09 10:44:35;;;;;;;7.08;6.37;;;;;;;9.49;47.76;98951.05;1812352;78;21077;-61
2022/01/09 10:47:10;;;;;;;7.75;6.37;;;;;;;9.50;47.79;98943.91;1782587;80;21128;-64
2022/01/09 10:49:51;;;;;;;8.05;6.55;;;;;;;9.50;47.78;98927.49;1801251;78;21049;-62
2022/01/09 10:52:26;;;;;;;7.50;6.80;;;;;;;9.50;47.78;98918.21;1788325;78;21544;-61
2022/01/09 10:54:57;;;;;;;6.45;5.78;;;;;;;9.51;47.80;98933.64;1782506;79;21025;-61
2022/01/09 10:57:30;;;;;;;8.25;7.00;;;;;;;9.52;47.79;98935.27;1782807;79;21038;-63
2022/01/09 11:00:11;;;;;;;7.95;7.10;;;;;;;9.51;47.80;98938.44;1782745;80;21989;-61
2022/01/09 11:02:37;;;;;;;7.55;6.75;;;;;;;9.52;47.81;98918.89;1783638;79;21007;-61
2022/01/09 11:05:05;;;;;;;8.28;6.55;;;;;;;9.52;47.80;98938.77;1782685;79;22038;-61
2022/01/09 11:07:32;;;;;;;8.23;6.67;;;;;;;9.53;47.80;98936.42;1783643;79;21050;-61
2022/01/09 11:09:59;;;;;;;9.13;7.60;;;;;;;9.53;47.84;98932.95;1782668;79;21022;-63
2022/01/09 11:12:33;;;;;;;6.87;6.00;;;;;;;9.50;47.81;98922.70;1782671;80;21098;-61
2022/01/09 11:14:55;;;;;;;7.87;6.53;;;;;;;9.53;47.79;98923.17;1781979;79;21060;-62
2022/01/09 11:17:21;;;;;;;8.23;6.70;;;;;;;9.53;47.79;98923.17;1789142;78;21427;-62
2022/01/09 11:19:49;;;;;;;8.08;6.55;;;;;;;9.55;47.78;98915.03;1813633;78;21017;-62
2022/01/09 11:22:15;;;;;;;8.23;7.10;;;;;;;9.55;47.80;98911.06;1799809;78;21041;-62
2022/01/09 11:25:07;;;;;;;9.55;6.72;;;;;;;9.54;47.80;98903.62;1798580;78;21104;-61
2022/01/09 11:28:05;;;;;;;7.72;6.90;;;;;;;9.55;47.80;98898.62;1838422;77;21490;-62
2022/01/09 11:30:53;;;;;;;8.10;6.80;;;;;;;9.56;47.80;98895.45;1826006;78;21064;-63
2022/01/09 11:33:48;;;;;;;8.50;6.78;;;;;;;9.55;47.79;98897.30;1825915;78;21060;-61
2022/01/09 11:36:37;;;;;;;8.60;6.83;;;;;;;9.57;47.81;98898.44;1800330;78;21037;-61
2022/01/09 11:39:21;;;;;;;8.25;6.75;;;;;;;9.55;47.83;98890.66;1775983;80;21317;-62
2022/01/09 11:41:47;;;;;;;10.15;6.62;;;;;;;9.55;47.84;98888.02;1804156;77;20998;-63
2022/01/09 11:44:15;;;;;;;9.55;7.00;;;;;;;9.56;47.84;98888.34;1788892;77;21454;-62
2022/01/09 11:47:01;;;;;;;7.85;6.87;;;;;;;9.57;47.84;98885.19;1849020;77;21013;-61
2022/01/09 11:49:28;;;;;;;8.43;6.90;;;;;;;9.57;47.85;98883.34;1821434;77;21033;-62